Terminal Aerodrome Forecast
Issued by NWS Wilmington, OH

Current Version | Previous Version | Graphics & Text | Print | Product List | Glossary On
Versions: 1 2 3 4 5 6 7 8 9 10 11 12 13 14 15 16 17 18
000
FTUS41 KILN 281300 AAA
TAFDAY
TAF AMD
KDAY 281341Z 2814/2912 22012G20KT P6SM VCSH SCT035 OVC050
     FM281500 23014KT 5SM -SHRA BR SCT025 OVC040
     FM281700 24014KT P6SM BKN040 OVC080
     FM281900 26012KT P6SM BKN100 OVC200
     FM282300 26007KT P6SM SCT100=

USA.gov is the U.S. government's official web portal to all federal, state and local government web resources and services.